Time;durP1;ratioP1;P1;durP2;ratioP2;P2;SDS_P1;SDS_P2;PMS_P1;PMS_P2;Temp;Humidity;BMP_temperature;BMP_pressure;BME280_temperature;BME280_humidity;BME280_pressure;Samples;Min_cycle;Max_cycle;Signal;HPM_P1;HPM_P2
2022/04/09 00:02:06;;;;;;;;;;;3.70;99.90;;;;;;5091517;28;19931;-63
2022/04/09 00:04:31;;;;;;;;;;;3.70;99.90;;;;;;5091461;28;20057;-63
2022/04/09 00:06:57;;;;;;;;;;;3.80;99.90;;;;;;5092644;28;20011;-63
2022/04/09 00:09:23;;;;;;;;;;;3.80;99.90;;;;;;5093095;28;20362;-62
2022/04/09 00:11:48;;;;;;;;;;;4.30;99.90;;;;;;5091931;28;20061;-63
2022/04/09 00:14:15;;;;;;;;;;;3.80;99.90;;;;;;5095564;28;20282;-62
2022/04/09 00:16:41;;;;;;;;;;;4.00;99.90;;;;;;5097270;28;19931;-62
2022/04/09 00:19:06;;;;;;;;;;;3.80;99.90;;;;;;5101929;28;19924;-62
2022/04/09 00:21:32;;;;;;;;;;;3.70;99.90;;;;;;5082616;28;19931;-62
2022/04/09 00:23:58;;;;;;;;;;;3.70;99.90;;;;;;5099026;28;19977;-62
2022/04/09 00:26:23;;;;;;;;;;;3.60;99.90;;;;;;5095957;28;19924;-62
2022/04/09 00:28:49;;;;;;;;;;;3.60;99.90;;;;;;5096837;28;19924;-62
2022/04/09 00:31:15;;;;;;;;;;;3.60;99.90;;;;;;5095925;28;19930;-62
2022/04/09 00:33:40;;;;;;;;;;;3.40;99.90;;;;;;5077518;28;19966;-62
2022/04/09 00:36:06;;;;;;;;;;;3.30;99.90;;;;;;5084642;28;19924;-62
2022/04/09 00:38:32;;;;;;;;;;;3.30;99.90;;;;;;5095577;28;20003;-62
2022/04/09 00:40:57;;;;;;;;;;;3.40;99.90;;;;;;5092179;28;20373;-62
2022/04/09 00:43:23;;;;;;;;;;;3.40;99.90;;;;;;5076653;28;19924;-62
2022/04/09 00:45:49;;;;;;;;;;;3.50;99.90;;;;;;5090218;28;20290;-62
2022/04/09 00:48:16;;;;;;;;;;;3.60;99.90;;;;;;5094437;28;19947;-62
2022/04/09 00:50:42;;;;;;;;;;;3.70;99.90;;;;;;5096429;28;20441;-62
2022/04/09 00:53:08;;;;;;;;;;;3.90;99.90;;;;;;5095579;28;20010;-62
2022/04/09 00:58:19;;;;;;;;;;;3.80;99.90;;;;;;5076334;28;19924;-62
2022/04/09 01:00:45;;;;;;;;;;;4.60;99.90;;;;;;5076157;28;20027;-62
2022/04/09 01:03:12;;;;;;;;;;;3.90;99.90;;;;;;5086109;28;20019;-62
2022/04/09 01:05:39;;;;;;;;;;;3.90;99.90;;;;;;5095324;28;19924;-62
2022/04/09 01:08:05;;;;;;;;;;;3.90;99.90;;;;;;5111485;28;19924;-62
2022/04/09 01:10:31;;;;;;;;;;;3.90;99.90;;;;;;5095988;28;20081;-62
2022/04/09 01:12:56;;;;;;;;;;;3.80;99.90;;;;;;5094543;28;20457;-62
2022/04/09 01:15:22;;;;;;;;;;;3.80;99.90;;;;;;5094263;28;19931;-62
2022/04/09 01:17:48;;;;;;;;;;;3.80;99.90;;;;;;5094515;28;19924;-62
2022/04/09 01:20:14;;;;;;;;;;;3.80;99.90;;;;;;5091028;28;20287;-62
2022/04/09 01:22:40;;;;;;;;;;;3.90;99.90;;;;;;5086568;28;19924;-62
2022/04/09 01:25:06;;;;;;;;;;;3.80;99.90;;;;;;5095364;28;19931;-63
2022/04/09 01:27:33;;;;;;;;;;;3.80;99.90;;;;;;5094740;28;19931;-62
2022/04/09 01:29:59;;;;;;;;;;;3.70;99.90;;;;;;5093379;28;19924;-62
2022/04/09 01:32:24;;;;;;;;;;;3.70;99.90;;;;;;5095529;28;20001;-63
2022/04/09 01:34:52;;;;;;;;;;;3.90;99.90;;;;;;5069274;28;20427;-62
2022/04/09 01:37:18;;;;;;;;;;;3.70;99.90;;;;;;5074029;28;19920;-62
2022/04/09 01:39:44;;;;;;;;;;;3.70;99.90;;;;;;5094248;28;19974;-62
2022/04/09 01:42:10;;;;;;;;;;;3.70;99.90;;;;;;5080695;28;19971;-62
2022/04/09 01:44:38;;;;;;;;;;;3.70;99.90;;;;;;5073680;28;19931;-62
2022/04/09 01:47:04;;;;;;;;;;;3.70;99.90;;;;;;5083333;28;20011;-62
2022/04/09 01:49:30;;;;;;;;;;;3.80;99.90;;;;;;5077260;28;20289;-62
2022/04/09 01:51:55;;;;;;;;;;;3.90;99.90;;;;;;5093344;28;19985;-63
2022/04/09 01:54:21;;;;;;;;;;;3.90;99.90;;;;;;5083106;28;19928;-62
2022/04/09 01:56:47;;;;;;;;;;;4.00;99.90;;;;;;5089283;28;19924;-62
2022/04/09 01:59:13;;;;;;;;;;;4.40;99.90;;;;;;5093527;28;20538;-63
2022/04/09 02:01:39;;;;;;;;;;;4.10;99.90;;;;;;5093539;28;19924;-63
2022/04/09 02:04:05;;;;;;;;;;;4.20;99.90;;;;;;5076759;28;20298;-63
2022/04/09 02:06:32;;;;;;;;;;;4.00;99.90;;;;;;5076334;28;20018;-63
2022/04/09 02:08:58;;;;;;;;;;;3.80;99.90;;;;;;5076509;28;19924;-63
2022/04/09 02:11:27;;;;;;;;;;;3.70;99.90;;;;;;5076401;28;19924;-63
2022/04/09 02:13:54;;;;;;;;;;;3.70;99.90;;;;;;5102982;28;19995;-62
2022/04/09 02:16:20;;;;;;;;;;;3.70;99.90;;;;;;5093724;28;19931;-63
2022/04/09 02:18:46;;;;;;;;;;;3.70;99.90;;;;;;5093044;28;19924;-63
2022/04/09 02:21:12;;;;;;;;;;;3.60;99.90;;;;;;5090123;28;20394;-62
2022/04/09 02:23:37;;;;;;;;;;;3.80;99.90;;;;;;5097472;28;20285;-62
2022/04/09 02:26:04;;;;;;;;;;;3.40;99.90;;;;;;5092798;28;19924;-63
2022/04/09 02:28:32;;;;;;;;;;;3.30;99.90;;;;;;5093649;28;20329;-62
2022/04/09 02:30:58;;;;;;;;;;;3.20;99.90;;;;;;5092781;28;20014;-62
2022/04/09 02:33:30;;;;;;;;;;;3.30;99.90;;;;;;5092695;28;19924;-63
2022/04/09 02:35:56;;;;;;;;;;;3.30;99.90;;;;;;5075012;28;19978;-62
2022/04/09 02:38:22;;;;;;;;;;;3.30;99.90;;;;;;5072566;28;19924;-62
2022/04/09 02:40:48;;;;;;;;;;;3.30;99.90;;;;;;5068904;28;19985;-63
2022/04/09 02:43:14;;;;;;;;;;;3.20;99.90;;;;;;5093402;28;19924;-62
2022/04/09 02:45:41;;;;;;;;;;;3.20;99.90;;;;;;5093068;28;19920;-62
2022/04/09 02:48:09;;;;;;;;;;;3.30;99.90;;;;;;5092186;28;19939;-62
2022/04/09 02:50:34;;;;;;;;;;;3.40;99.90;;;;;;5094175;28;20425;-63
2022/04/09 02:53:00;;;;;;;;;;;3.20;99.90;;;;;;5093906;28;19924;-62
2022/04/09 02:55:26;;;;;;;;;;;3.30;99.90;;;;;;5055687;28;20406;-62
2022/04/09 02:57:52;;;;;;;;;;;3.30;99.90;;;;;;5081277;28;19924;-62
2022/04/09 03:00:21;;;;;;;;;;;3.60;99.90;;;;;;5092582;28;20083;-62
2022/04/09 03:02:48;;;;;;;;;;;3.30;99.90;;;;;;5092152;28;19974;-62
2022/04/09 03:05:26;;;;;;;;;;;3.30;99.90;;;;;;5092800;28;20390;-63
2022/04/09 03:07:52;;;;;;;;;;;3.30;99.90;;;;;;5092588;28;19928;-62
2022/04/09 03:10:18;;;;;;;;;;;3.70;99.90;;;;;;5094079;28;20397;-62
2022/04/09 03:12:46;;;;;;;;;;;3.20;99.90;;;;;;5093823;28;19924;-62
2022/04/09 03:15:14;;;;;;;;;;;3.10;99.90;;;;;;5092749;28;19978;-62
2022/04/09 03:17:40;;;;;;;;;;;3.00;99.90;;;;;;5093884;28;19931;-62
2022/04/09 03:20:07;;;;;;;;;;;2.90;99.90;;;;;;5109615;28;20278;-62
2022/04/09 03:22:33;;;;;;;;;;;2.90;99.90;;;;;;5097147;28;19924;-62
2022/04/09 03:24:59;;;;;;;;;;;2.80;99.90;;;;;;5093573;28;19924;-62
2022/04/09 03:27:27;;;;;;;;;;;2.80;99.90;;;;;;5092634;28;19926;-62
2022/04/09 03:29:55;;;;;;;;;;;2.80;99.90;;;;;;5074564;28;19924;-62
2022/04/09 03:32:22;;;;;;;;;;;3.10;99.90;;;;;;5092087;28;19928;-62
2022/04/09 03:34:48;;;;;;;;;;;3.00;99.90;;;;;;5075545;28;19931;-62
2022/04/09 03:37:14;;;;;;;;;;;3.00;99.90;;;;;;5091671;28;19968;-62
2022/04/09 03:39:41;;;;;;;;;;;3.00;99.90;;;;;;5091903;28;19933;-62
2022/04/09 03:42:07;;;;;;;;;;;3.00;99.90;;;;;;5093110;28;20513;-62
2022/04/09 03:44:35;;;;;;;;;;;3.00;99.90;;;;;;5074482;28;19932;-62
2022/04/09 03:47:02;;;;;;;;;;;3.00;99.90;;;;;;5092009;28;19943;-62
2022/04/09 03:49:29;;;;;;;;;;;3.10;99.90;;;;;;5108948;28;19931;-62
2022/04/09 03:51:55;;;;;;;;;;;3.10;99.90;;;;;;5091187;28;19930;-62
2022/04/09 03:54:23;;;;;;;;;;;3.10;99.90;;;;;;5074962;28;19924;-62
2022/04/09 03:56:50;;;;;;;;;;;3.10;99.90;;;;;;5091729;28;19920;-62
2022/04/09 03:59:18;;;;;;;;;;;3.90;99.90;;;;;;5091917;28;19963;-62
2022/04/09 04:01:47;;;;;;;;;;;3.10;99.90;;;;;;5075158;28;19928;-62
2022/04/09 04:04:15;;;;;;;;;;;3.10;99.90;;;;;;5074421;28;20267;-62
2022/04/09 04:06:42;;;;;;;;;;;3.20;99.90;;;;;;5075159;28;19935;-62
2022/04/09 04:09:08;;;;;;;;;;;3.10;99.90;;;;;;5091572;28;19920;-62
2022/04/09 04:11:34;;;;;;;;;;;3.10;99.90;;;;;;5091350;28;19925;-62
2022/04/09 04:14:00;;;;;;;;;;;3.10;99.90;;;;;;5074953;28;19968;-62
2022/04/09 04:16:28;;;;;;;;;;;3.20;99.90;;;;;;5091336;28;19924;-62
2022/04/09 04:18:53;;;;;;;;;;;3.10;99.90;;;;;;5092280;28;19973;-62
2022/04/09 04:21:20;;;;;;;;;;;3.10;99.90;;;;;;5071842;28;19931;-62
2022/04/09 04:23:54;;;;;;;;;;;3.00;99.90;;;;;;5094279;28;20286;-62
2022/04/09 04:26:22;;;;;;;;;;;3.00;99.90;;;;;;5091041;28;20324;-62
2022/04/09 04:28:49;;;;;;;;;;;2.90;99.90;;;;;;5091742;28;20382;-62
2022/04/09 04:31:18;;;;;;;;;;;2.90;99.90;;;;;;5091963;28;20319;-62
2022/04/09 04:33:44;;;;;;;;;;;2.80;99.90;;;;;;5073990;28;19925;-62
2022/04/09 04:36:10;;;;;;;;;;;2.80;99.90;;;;;;5090003;28;19947;-62
2022/04/09 04:38:39;;;;;;;;;;;2.80;99.90;;;;;;5091494;28;19947;-62
2022/04/09 04:41:05;;;;;;;;;;;2.80;99.90;;;;;;5086181;28;19964;-62
2022/04/09 04:43:32;;;;;;;;;;;2.80;99.90;;;;;;5058358;28;20401;-62
2022/04/09 04:46:00;;;;;;;;;;;2.70;99.90;;;;;;5090912;28;20349;-62
2022/04/09 04:48:26;;;;;;;;;;;2.70;99.90;;;;;;5074677;28;20036;-62
2022/04/09 04:50:52;;;;;;;;;;;2.70;99.90;;;;;;5091719;28;20302;-62
2022/04/09 04:53:18;;;;;;;;;;;2.70;99.90;;;;;;5071013;28;19924;-62
2022/04/09 04:55:51;;;;;;;;;;;2.70;99.90;;;;;;5071698;28;20086;-61
2022/04/09 04:58:18;;;;;;;;;;;2.70;99.90;;;;;;5071532;28;19920;-62
2022/04/09 05:00:51;;;;;;;;;;;3.30;99.90;;;;;;5074854;28;19924;-62
2022/04/09 05:03:18;;;;;;;;;;;2.80;99.90;;;;;;5095373;28;19921;-62
2022/04/09 05:05:53;;;;;;;;;;;2.90;99.90;;;;;;5095244;28;19924;-62
2022/04/09 05:08:19;;;;;;;;;;;3.00;99.90;;;;;;5077151;28;20345;-62
2022/04/09 05:10:45;;;;;;;;;;;3.10;99.90;;;;;;5094844;28;20018;-62
2022/04/09 05:13:13;;;;;;;;;;;3.00;99.90;;;;;;5094888;28;19924;-62
2022/04/09 05:15:39;;;;;;;;;;;3.00;99.90;;;;;;5095200;28;20428;-62
2022/04/09 05:18:04;;;;;;;;;;;3.00;99.90;;;;;;5094886;28;19928;-62
2022/04/09 05:20:33;;;;;;;;;;;2.90;99.90;;;;;;5073911;28;19932;-62
2022/04/09 05:23:03;;;;;;;;;;;2.90;99.90;;;;;;5089083;28;19924;-62
2022/04/09 05:25:31;;;;;;;;;;;2.90;99.90;;;;;;5094660;28;20271;-61
2022/04/09 05:28:03;;;;;;;;;;;3.00;99.90;;;;;;5094587;28;19924;-62
2022/04/09 05:30:34;;;;;;;;;;;3.20;99.90;;;;;;5094111;28;20363;-63
2022/04/09 05:33:00;;;;;;;;;;;3.30;99.90;;;;;;5077636;28;19924;-63
2022/04/09 05:35:26;;;;;;;;;;;3.40;99.90;;;;;;5080345;28;19947;-62
2022/04/09 05:37:54;;;;;;;;;;;3.40;99.90;;;;;;5088586;28;19924;-62
2022/04/09 05:40:23;;;;;;;;;;;3.30;99.90;;;;;;5078255;28;19924;-63
2022/04/09 05:42:51;;;;;;;;;;;3.20;99.90;;;;;;5074571;28;20039;-62
2022/04/09 05:45:18;;;;;;;;;;;3.20;99.90;;;;;;5059413;28;19920;-62
2022/04/09 05:47:46;;;;;;;;;;;3.20;99.90;;;;;;5077331;28;19931;-62
2022/04/09 05:50:15;;;;;;;;;;;3.30;99.90;;;;;;5065356;28;19920;-62
2022/04/09 05:52:42;;;;;;;;;;;3.30;99.90;;;;;;5084571;28;20018;-63
2022/04/09 05:55:10;;;;;;;;;;;3.40;99.90;;;;;;5088281;28;19924;-63
2022/04/09 05:57:37;;;;;;;;;;;3.40;99.90;;;;;;5093729;28;19994;-62
2022/04/09 06:00:07;;;;;;;;;;;3.50;99.90;;;;;;5093892;28;20366;-62
2022/04/09 06:02:41;;;;;;;;;;;3.60;99.90;;;;;;5095235;28;19924;-64
2022/04/09 06:05:10;;;;;;;;;;;3.70;99.90;;;;;;5076196;28;19971;-63
2022/04/09 06:07:39;;;;;;;;;;;3.70;99.90;;;;;;5075502;28;20259;-63
2022/04/09 06:10:08;;;;;;;;;;;3.80;99.90;;;;;;5083259;28;19924;-63
2022/04/09 06:12:35;;;;;;;;;;;3.90;99.90;;;;;;5083518;28;20011;-63
2022/04/09 06:15:09;;;;;;;;;;;3.90;99.90;;;;;;5110430;28;19924;-63
2022/04/09 06:17:40;;;;;;;;;;;4.00;99.90;;;;;;5093336;28;19924;-63
2022/04/09 06:20:09;;;;;;;;;;;4.10;99.90;;;;;;5110459;28;20286;-63
2022/04/09 06:22:37;;;;;;;;;;;4.10;99.90;;;;;;5097794;28;19931;-63
2022/04/09 06:25:03;;;;;;;;;;;4.20;99.90;;;;;;5094013;28;19924;-63
2022/04/09 06:27:31;;;;;;;;;;;4.10;99.90;;;;;;5093239;28;19928;-63
2022/04/09 06:29:56;;;;;;;;;;;4.20;99.90;;;;;;5094569;28;20313;-63
2022/04/09 06:32:22;;;;;;;;;;;4.10;99.90;;;;;;5092711;28;19924;-63
2022/04/09 06:34:48;;;;;;;;;;;4.10;99.90;;;;;;5085476;28;19924;-63
2022/04/09 06:37:22;;;;;;;;;;;4.70;99.90;;;;;;5056615;28;20014;-63
2022/04/09 06:39:48;;;;;;;;;;;4.00;99.90;;;;;;5086301;28;20433;-63
2022/04/09 06:42:14;;;;;;;;;;;4.00;99.90;;;;;;5086279;28;19920;-63
2022/04/09 06:45:03;;;;;;;;;;;4.00;99.90;;;;;;5078514;28;19970;-63
2022/04/09 06:47:47;;;;;;;;;;;4.10;99.90;;;;;;5066833;28;19973;-63
2022/04/09 06:50:14;;;;;;;;;;;4.50;99.90;;;;;;5072199;28;19924;-63
2022/04/09 06:52:40;;;;;;;;;;;4.80;99.90;;;;;;5063295;28;19924;-63
2022/04/09 06:55:10;;;;;;;;;;;4.60;99.90;;;;;;5082832;28;19936;-63
2022/04/09 06:57:38;;;;;;;;;;;4.80;99.90;;;;;;5097077;28;19928;-63
2022/04/09 07:00:07;;;;;;;;;;;5.00;99.90;;;;;;5080287;28;20023;-63
2022/04/09 07:02:36;;;;;;;;;;;5.20;99.90;;;;;;5070418;28;19973;-63
2022/04/09 07:05:01;;;;;;;;;;;5.40;99.90;;;;;;5091626;28;19924;-63
2022/04/09 07:07:27;;;;;;;;;;;5.40;99.90;;;;;;5092921;28;19924;-63
2022/04/09 07:09:55;;;;;;;;;;;6.20;99.90;;;;;;5093535;28;19956;-63
2022/04/09 07:12:22;;;;;;;;;;;5.50;99.90;;;;;;5093502;28;19931;-63
2022/04/09 07:14:48;;;;;;;;;;;5.50;99.90;;;;;;5092824;28;19924;-63
2022/04/09 07:17:20;;;;;;;;;;;5.50;99.90;;;;;;5093929;28;19924;-63
2022/04/09 07:19:46;;;;;;;;;;;5.60;99.90;;;;;;5092573;28;20350;-63
2022/04/09 07:22:12;;;;;;;;;;;5.70;99.90;;;;;;5080799;28;19928;-63
2022/04/09 07:24:37;;;;;;;;;;;5.70;99.90;;;;;;5092211;28;19924;-63
2022/04/09 07:27:03;;;;;;;;;;;5.60;99.90;;;;;;5092998;28;20293;-63
2022/04/09 07:29:29;;;;;;;;;;;5.70;99.90;;;;;;5082323;28;20007;-63
2022/04/09 07:31:55;;;;;;;;;;;5.80;99.90;;;;;;5084709;28;20392;-63
2022/04/09 07:34:21;;;;;;;;;;;5.80;99.90;;;;;;5083560;28;19928;-63
2022/04/09 07:36:47;;;;;;;;;;;5.90;99.90;;;;;;5083552;28;19977;-63
2022/04/09 07:39:12;;;;;;;;;;;6.00;99.90;;;;;;5075982;28;19924;-63
2022/04/09 07:41:38;;;;;;;;;;;6.20;99.90;;;;;;5084200;28;19924;-63
2022/04/09 07:44:04;;;;;;;;;;;6.40;99.90;;;;;;5092346;28;19924;-63
2022/04/09 07:46:29;;;;;;;;;;;6.40;99.90;;;;;;5093594;28;19924;-63
2022/04/09 07:48:55;;;;;;;;;;;6.50;99.90;;;;;;5092036;28;19931;-63
2022/04/09 07:51:21;;;;;;;;;;;6.40;99.90;;;;;;5093645;28;19982;-63
2022/04/09 07:53:46;;;;;;;;;;;6.50;99.90;;;;;;5085607;28;19929;-63
2022/04/09 07:56:12;;;;;;;;;;;7.20;99.90;;;;;;5072559;28;19933;-63
2022/04/09 07:58:37;;;;;;;;;;;6.80;99.90;;;;;;5080445;28;19924;-63
2022/04/09 08:01:03;;;;;;;;;;;7.00;99.90;;;;;;5087355;28;20003;-63
2022/04/09 08:03:29;;;;;;;;;;;7.00;99.90;;;;;;5080880;28;19978;-63
2022/04/09 08:05:54;;;;;;;;;;;7.10;99.90;;;;;;5083552;28;20372;-63
2022/04/09 08:08:20;;;;;;;;;;;7.20;99.90;;;;;;5084511;28;19924;-63
2022/04/09 08:10:46;;;;;;;;;;;7.20;99.90;;;;;;5091413;28;19924;-63
2022/04/09 08:13:11;;;;;;;;;;;7.20;99.90;;;;;;5092526;28;19928;-63
2022/04/09 08:15:37;;;;;;;;;;;7.20;99.90;;;;;;5092744;28;19924;-63
2022/04/09 08:18:04;;;;;;;;;;;7.30;99.90;;;;;;5092348;28;19931;-63
2022/04/09 08:20:30;;;;;;;;;;;7.30;99.90;;;;;;5092395;28;19939;-63
2022/04/09 08:22:55;;;;;;;;;;;7.20;99.90;;;;;;5097614;28;19924;-63
2022/04/09 08:25:21;;;;;;;;;;;7.10;99.90;;;;;;5081763;28;19935;-63
2022/04/09 08:27:51;;;;;;;;;;;7.10;99.90;;;;;;5082960;28;19931;-63
2022/04/09 08:30:17;;;;;;;;;;;7.40;99.90;;;;;;5092243;28;19924;-63
2022/04/09 08:32:43;;;;;;;;;;;7.80;99.90;;;;;;5092301;28;20015;-63
2022/04/09 08:35:09;;;;;;;;;;;7.90;99.90;;;;;;5087275;28;19927;-63
2022/04/09 08:37:35;;;;;;;;;;;7.70;99.90;;;;;;5087417;28;19920;-63
2022/04/09 08:40:01;;;;;;;;;;;7.20;99.90;;;;;;5093274;28;19930;-63
2022/04/09 08:42:28;;;;;;;;;;;6.40;99.90;;;;;;5066472;28;19931;-63
2022/04/09 08:44:53;;;;;;;;;;;6.00;99.90;;;;;;5095788;28;19920;-63
2022/04/09 08:47:19;;;;;;;;;;;5.70;99.90;;;;;;5095825;28;20305;-63
2022/04/09 08:49:46;;;;;;;;;;;5.60;99.90;;;;;;5095329;28;19927;-63
2022/04/09 08:52:12;;;;;;;;;;;5.50;99.90;;;;;;5094423;28;20309;-63
2022/04/09 08:54:38;;;;;;;;;;;5.60;99.90;;;;;;5081953;28;19925;-63
2022/04/09 08:57:04;;;;;;;;;;;5.60;99.90;;;;;;5076121;28;19927;-63
2022/04/09 08:59:30;;;;;;;;;;;5.70;99.90;;;;;;5073957;28;20674;-63
2022/04/09 09:01:56;;;;;;;;;;;5.90;99.90;;;;;;5093700;28;19931;-63
2022/04/09 09:04:21;;;;;;;;;;;6.50;99.90;;;;;;5094781;28;19920;-63
2022/04/09 09:06:47;;;;;;;;;;;7.00;99.90;;;;;;5092002;28;19924;-63
2022/04/09 09:09:24;;;;;;;;;;;6.80;99.90;;;;;;5093453;28;19977;-63
2022/04/09 09:11:50;;;;;;;;;;;5.90;99.90;;;;;;5095923;28;20293;-63
2022/04/09 09:14:26;;;;;;;;;;;5.60;99.90;;;;;;5095417;28;19924;-63
2022/04/09 09:16:54;;;;;;;;;;;4.80;99.90;;;;;;5095106;28;20334;-63
2022/04/09 09:19:20;;;;;;;;;;;4.70;99.90;;;;;;5095053;28;19931;-63
2022/04/09 09:21:50;;;;;;;;;;;4.60;99.90;;;;;;5095721;28;19924;-63
2022/04/09 09:24:16;;;;;;;;;;;4.70;99.90;;;;;;5099097;28;20366;-63
2022/04/09 09:26:44;;;;;;;;;;;4.80;99.90;;;;;;5095590;28;19928;-63
2022/04/09 09:29:11;;;;;;;;;;;4.90;99.90;;;;;;5094810;28;20366;-63
2022/04/09 09:31:40;;;;;;;;;;;5.00;99.90;;;;;;5096114;28;19931;-63
2022/04/09 09:34:10;;;;;;;;;;;5.10;99.90;;;;;;5092127;28;19928;-63
2022/04/09 09:36:38;;;;;;;;;;;5.20;99.90;;;;;;5093130;28;19928;-64
2022/04/09 09:39:04;;;;;;;;;;;5.50;99.90;;;;;;5093838;28;19923;-63
2022/04/09 09:41:30;;;;;;;;;;;5.80;99.90;;;;;;5088589;28;19935;-63
2022/04/09 09:44:00;;;;;;;;;;;6.10;99.90;;;;;;5093673;28;19920;-63
2022/04/09 09:46:26;;;;;;;;;;;6.40;99.90;;;;;;5086326;28;19975;-63
2022/04/09 09:48:51;;;;;;;;;;;6.70;99.90;;;;;;5080463;28;19978;-63
2022/04/09 09:51:21;;;;;;;;;;;6.90;99.90;;;;;;5093107;28;20020;-63
2022/04/09 09:53:47;;;;;;;;;;;7.20;99.90;;;;;;5084508;28;19924;-63
2022/04/09 09:56:13;;;;;;;;;;;7.40;99.90;;;;;;5082142;28;19977;-63
2022/04/09 09:58:40;;;;;;;;;;;7.70;99.90;;;;;;5083043;28;19924;-63
2022/04/09 10:01:07;;;;;;;;;;;8.00;99.90;;;;;;5082778;28;20305;-63
2022/04/09 10:03:33;;;;;;;;;;;8.20;99.90;;;;;;5076958;28;19924;-63
2022/04/09 10:05:59;;;;;;;;;;;8.30;99.90;;;;;;5093658;28;19924;-63
2022/04/09 10:08:24;;;;;;;;;;;8.50;99.90;;;;;;5092893;28;19924;-63
2022/04/09 10:10:50;;;;;;;;;;;8.50;99.90;;;;;;5091340;28;19928;-63
2022/04/09 10:13:35;;;;;;;;;;;8.20;99.90;;;;;;5092879;28;20286;-63
2022/04/09 10:16:01;;;;;;;;;;;7.90;99.90;;;;;;5094718;28;20289;-64
2022/04/09 10:18:27;;;;;;;;;;;7.60;99.90;;;;;;5093563;28;20359;-64
2022/04/09 10:20:55;;;;;;;;;;;7.50;99.90;;;;;;5094021;28;20015;-64
2022/04/09 10:23:22;;;;;;;;;;;7.40;99.90;;;;;;5098762;28;19935;-63
2022/04/09 10:25:51;;;;;;;;;;;7.40;99.90;;;;;;5093538;28;20346;-64
2022/04/09 10:28:28;;;;;;;;;;;7.30;99.90;;;;;;5094214;28;19924;-64
2022/04/09 10:30:54;;;;;;;;;;;7.50;99.90;;;;;;5087514;28;19982;-64
2022/04/09 10:33:22;;;;;;;;;;;7.50;99.90;;;;;;5092632;28;19967;-64
2022/04/09 10:35:48;;;;;;;;;;;7.70;99.90;;;;;;5083894;28;20011;-64
2022/04/09 10:38:14;;;;;;;;;;;8.10;99.90;;;;;;5083725;28;20003;-63
2022/04/09 10:40:43;;;;;;;;;;;7.30;99.90;;;;;;5092451;28;19924;-63
2022/04/09 10:43:30;;;;;;;;;;;7.00;99.90;;;;;;5094068;28;20381;-63
2022/04/09 10:46:00;;;;;;;;;;;6.80;99.90;;;;;;5126102;27;19924;-63
2022/04/09 10:48:27;;;;;;;;;;;6.80;99.90;;;;;;5087063;28;19924;-63
2022/04/09 10:50:54;;;;;;;;;;;6.90;99.90;;;;;;5092895;28;19927;-63
2022/04/09 10:53:21;;;;;;;;;;;6.80;99.90;;;;;;5090988;28;20386;-63
2022/04/09 10:56:05;;;;;;;;;;;7.10;99.90;;;;;;5082773;28;19974;-63
2022/04/09 10:58:31;;;;;;;;;;;7.50;99.90;;;;;;5094072;28;19924;-63
2022/04/09 11:00:56;;;;;;;;;;;8.10;99.90;;;;;;5093244;28;19928;-63
2022/04/09 11:03:28;;;;;;;;;;;8.20;99.90;;;;;;5094051;28;20022;-63
2022/04/09 11:06:14;;;;;;;;;;;8.50;99.90;;;;;;5093527;28;19931;-63
2022/04/09 11:08:40;;;;;;;;;;;8.70;99.90;;;;;;5087484;28;19958;-63
2022/04/09 11:11:06;;;;;;;;;;;9.20;99.90;;;;;;5078675;28;19924;-63
2022/04/09 11:13:31;;;;;;;;;;;9.40;99.90;;;;;;5088639;28;20079;-63
2022/04/09 11:15:57;;;;;;;;;;;9.40;99.90;;;;;;5093906;28;19924;-63
2022/04/09 11:18:22;;;;;;;;;;;9.60;99.90;;;;;;5085901;28;19932;-63
2022/04/09 11:20:49;;;;;;;;;;;9.40;99.90;;;;;;5087269;28;19946;-63
2022/04/09 11:23:15;;;;;;;;;;;9.50;99.90;;;;;;5097795;28;19924;-63
2022/04/09 11:25:42;;;;;;;;;;;9.40;99.90;;;;;;5093287;28;19924;-63
2022/04/09 11:28:17;;;;;;;;;;;9.00;99.90;;;;;;5092005;28;19931;-63
2022/04/09 11:30:53;;;;;;;;;;;9.20;99.90;;;;;;5093408;28;20348;-63
2022/04/09 11:33:19;;;;;;;;;;;9.40;99.90;;;;;;5093511;28;20011;-63
2022/04/09 11:35:45;;;;;;;;;;;9.50;99.90;;;;;;5092775;28;19925;-63
2022/04/09 11:38:11;;;;;;;;;;;9.60;99.90;;;;;;5093293;28;19924;-63
2022/04/09 11:40:42;;;;;;;;;;;9.50;99.90;;;;;;5092398;28;19924;-63
2022/04/09 11:43:08;;;;;;;;;;;9.20;99.90;;;;;;5072835;28;19970;-63
2022/04/09 11:45:33;;;;;;;;;;;9.30;99.90;;;;;;5073318;28;20290;-63
2022/04/09 11:48:00;;;;;;;;;;;9.50;99.90;;;;;;5074125;28;20015;-63
2022/04/09 11:50:39;;;;;;;;;;;9.50;99.90;;;;;;5093608;28;19920;-63
2022/04/09 11:53:11;;;;;;;;;;;9.80;99.90;;;;;;5092921;28;19924;-63
2022/04/09 11:55:38;;;;;;;;;;;9.60;99.90;;;;;;5072637;28;20358;-63
2022/04/09 11:58:03;;;;;;;;;;;9.20;99.90;;;;;;5083858;28;19924;-63
2022/04/09 12:00:30;;;;;;;;;;;8.80;99.90;;;;;;5092997;28;20052;-63
2022/04/09 12:03:14;;;;;;;;;;;8.50;99.90;;;;;;5092732;28;19924;-64
2022/04/09 12:05:44;;;;;;;;;;;8.60;99.90;;;;;;5089422;28;20109;-63
2022/04/09 12:08:11;;;;;;;;;;;8.70;99.90;;;;;;5082973;28;19981;-63
2022/04/09 12:10:50;;;;;;;;;;;8.50;99.90;;;;;;5085008;28;19928;-63
2022/04/09 12:13:22;;;;;;;;;;;8.70;99.90;;;;;;5085204;28;19928;-63
2022/04/09 12:15:48;;;;;;;;;;;8.80;99.90;;;;;;5086445;28;19924;-63
2022/04/09 12:18:24;;;;;;;;;;;9.70;99.90;;;;;;5085056;28;19947;-63
2022/04/09 12:20:49;;;;;;;;;;;9.90;99.90;;;;;;5086799;28;20375;-63
2022/04/09 12:23:27;;;;;;;;;;;10.00;99.90;;;;;;5088062;28;19933;-63
2022/04/09 12:25:52;;;;;;;;;;;9.50;99.90;;;;;;5084705;28;19928;-63
2022/04/09 12:28:20;;;;;;;;;;;9.00;99.90;;;;;;5081138;28;19932;-63
2022/04/09 12:30:47;;;;;;;;;;;9.00;99.90;;;;;;5083899;28;20267;-63
2022/04/09 12:33:13;;;;;;;;;;;9.70;99.90;;;;;;5085596;28;19931;-64
2022/04/09 12:35:39;;;;;;;;;;;9.50;99.90;;;;;;5087965;28;20385;-64
2022/04/09 12:38:05;;;;;;;;;;;9.00;99.90;;;;;;5083980;28;20381;-64
2022/04/09 12:40:32;;;;;;;;;;;8.60;99.90;;;;;;5076389;28;20351;-63
2022/04/09 12:42:58;;;;;;;;;;;8.40;99.90;;;;;;5089163;28;19928;-63
2022/04/09 12:45:25;;;;;;;;;;;8.40;99.90;;;;;;5095596;28;19956;-63
2022/04/09 12:47:53;;;;;;;;;;;9.20;99.90;;;;;;5095706;28;19931;-63
2022/04/09 12:50:20;;;;;;;;;;;10.00;99.90;;;;;;5080817;28;19924;-63
2022/04/09 12:52:46;;;;;;;;;;;10.50;99.90;;;;;;5095117;28;19924;-63
2022/04/09 12:55:14;;;;;;;;;;;11.10;99.90;;;;;;5094848;28;19938;-63
2022/04/09 12:57:40;;;;;;;;;;;11.30;99.90;;;;;;5091995;28;20348;-63
2022/04/09 13:00:06;;;;;;;;;;;11.60;99.90;;;;;;5091975;28;19924;-63
2022/04/09 13:02:32;;;;;;;;;;;11.00;98.80;;;;;;5096270;28;19959;-63
2022/04/09 13:04:58;;;;;;;;;;;10.50;99.90;;;;;;5096500;28;19930;-63
2022/04/09 13:07:23;;;;;;;;;;;10.80;99.90;;;;;;5076902;28;19928;-63
2022/04/09 13:09:49;;;;;;;;;;;10.50;99.90;;;;;;5094780;28;19979;-63
2022/04/09 13:12:15;;;;;;;;;;;10.20;99.90;;;;;;5089807;28;21923;-63
2022/04/09 13:14:40;;;;;;;;;;;10.20;99.90;;;;;;5090907;28;19959;-63
2022/04/09 13:17:06;;;;;;;;;;;9.90;99.90;;;;;;5094573;28;19970;-63
2022/04/09 13:19:34;;;;;;;;;;;9.90;99.90;;;;;;5094023;28;19935;-63
2022/04/09 13:21:59;;;;;;;;;;;9.20;99.90;;;;;;5082069;28;19924;-63
2022/04/09 13:24:25;;;;;;;;;;;9.20;99.90;;;;;;5096300;28;19928;-63
2022/04/09 13:26:51;;;;;;;;;;;9.40;99.90;;;;;;5094127;28;19924;-63
2022/04/09 13:29:16;;;;;;;;;;;10.00;99.20;;;;;;5077670;28;19932;-63
2022/04/09 13:31:42;;;;;;;;;;;10.20;99.90;;;;;;5075614;28;20430;-63
2022/04/09 13:34:11;;;;;;;;;;;10.30;99.90;;;;;;5076675;28;20382;-63
2022/04/09 13:36:37;;;;;;;;;;;9.50;99.90;;;;;;5095905;28;19931;-63
2022/04/09 13:39:03;;;;;;;;;;;8.80;99.90;;;;;;5094107;28;20306;-63
2022/04/09 13:41:28;;;;;;;;;;;8.70;99.90;;;;;;5085959;28;19924;-63
2022/04/09 13:43:54;;;;;;;;;;;8.80;99.90;;;;;;5084576;28;19932;-63
2022/04/09 13:46:20;;;;;;;;;;;8.40;99.90;;;;;;5095607;28;19958;-63
2022/04/09 13:48:45;;;;;;;;;;;8.10;99.90;;;;;;5094954;28;19924;-63
2022/04/09 13:51:12;;;;;;;;;;;8.00;99.90;;;;;;5095693;28;19928;-63
2022/04/09 13:53:38;;;;;;;;;;;8.40;99.90;;;;;;5089687;28;19931;-63
2022/04/09 13:56:04;;;;;;;;;;;8.50;99.90;;;;;;5078263;28;19924;-63
2022/04/09 13:58:30;;;;;;;;;;;8.20;99.90;;;;;;5090016;28;19924;-63
2022/04/09 14:00:55;;;;;;;;;;;8.40;99.90;;;;;;5087635;28;20340;-63
2022/04/09 14:03:22;;;;;;;;;;;9.20;99.90;;;;;;5078297;28;20390;-63
2022/04/09 14:05:48;;;;;;;;;;;9.60;99.90;;;;;;5074622;28;19977;-63
2022/04/09 14:08:13;;;;;;;;;;;10.20;99.90;;;;;;5077052;28;20015;-63
2022/04/09 14:10:39;;;;;;;;;;;10.50;99.90;;;;;;5089731;28;19928;-63
2022/04/09 14:13:05;;;;;;;;;;;10.60;97.60;;;;;;5082567;28;19924;-63
2022/04/09 14:15:30;;;;;;;;;;;10.70;99.90;;;;;;5094602;28;19924;-63
2022/04/09 14:17:56;;;;;;;;;;;10.30;99.70;;;;;;5086317;28;19969;-63
2022/04/09 14:20:22;;;;;;;;;;;10.40;99.90;;;;;;5102399;28;20019;-63
2022/04/09 14:22:47;;;;;;;;;;;10.50;99.80;;;;;;5082371;28;19931;-63
2022/04/09 14:25:13;;;;;;;;;;;10.50;99.00;;;;;;5094305;28;19932;-63
2022/04/09 14:27:39;;;;;;;;;;;10.60;99.90;;;;;;5093819;28;19932;-63
2022/04/09 14:30:04;;;;;;;;;;;10.90;99.90;;;;;;5094241;28;20450;-63
2022/04/09 14:32:30;;;;;;;;;;;11.10;99.60;;;;;;5093546;28;19928;-63